LYBE/BEG METAR and TAF weather

Enter ICAO airport designator
Station Type Date Time Source
LYBE METAR 2018/11/17 03:00 UTC NOAA

LYBE 170300Z 11006KT 9999 SCT040 05/00 Q1028 NOSIG


Station Type Date Time Source
LYBE Decoded METAR 2018/11/17 03:00 UTC NOAA

Beograd / Surcin, Serbia and Montenegro (LYBE) 44-49N 020-17E 99M
Nov 16, 2018 - 10:00 PM EST / 2018.11.17 0300 UTC
Wind: from the ESE (110 degrees) at 7 MPH (6 KT):0
Visibility: greater than 7 mile(s):0
Sky conditions: partly cloudy
Temperature: 41 F (5 C)
Dew Point: 32 F (0 C)
Relative Humidity: 70%
Pressure (altimeter): 30.36 in. Hg (1028 hPa)
ob: LYBE 170300Z 11006KT 9999 SCT040 05/00 Q1028 NOSIG
cycle: 3

Station Type Date Time Source
LYBE TAF 2018/11/16 18:21 UTC NOAA

TAF LYBE 161700Z 1618/1718 04007KT 9999 SCT040 TX08/1712Z TN01/1704Z
BECMG 1708/1711 10012KT


Example: see airport list